Time;durP1;ratioP1;P1;durP2;ratioP2;P2;SDS_P1;SDS_P2;PMS_P1;PMS_P2;Temp;Humidity;BMP_temperature;BMP_pressure;BME280_temperature;BME280_humidity;BME280_pressure;Samples;Min_cycle;Max_cycle;Signal;HPM_P1;HPM_P2
2021/06/22 00:00:36;;;;;;;4.67;3.63;;;22.40;99.90;;;;;;5102355;28;20401;-84
2021/06/22 00:03:05;;;;;;;3.70;3.17;;;22.30;99.90;;;;;;5101407;28;20214;-84
2021/06/22 00:05:32;;;;;;;4.30;3.90;;;22.30;99.90;;;;;;5101243;28;20452;-84
2021/06/22 00:07:58;;;;;;;3.47;3.17;;;22.30;99.90;;;;;;5110566;28;20206;-81
2021/06/22 00:10:27;;;;;;;3.47;3.20;;;22.30;99.90;;;;;;5115364;28;20453;-82
2021/06/22 00:12:54;;;;;;;3.67;2.87;;;22.40;99.90;;;;;;5114607;28;20408;-82
2021/06/22 00:15:21;;;;;;;5.03;4.63;;;22.40;99.90;;;;;;5117513;28;20397;-83
2021/06/22 00:17:48;;;;;;;4.17;3.77;;;22.30;99.90;;;;;;5118507;28;20439;-82
2021/06/22 00:20:15;;;;;;;3.40;3.10;;;22.30;99.90;;;;;;5118637;28;20412;-82
2021/06/22 00:22:42;;;;;;;3.47;3.20;;;22.30;99.90;;;;;;5101764;28;20435;-83
2021/06/22 00:25:10;;;;;;;3.70;3.13;;;22.30;99.90;;;;;;5102016;28;20848;-84
2021/06/22 00:27:36;;;;;;;4.00;3.70;;;22.30;99.90;;;;;;5106865;28;20436;-84
2021/06/22 00:30:05;;;;;;;4.07;3.77;;;22.30;99.90;;;;;;5093408;28;20466;-83
2021/06/22 00:32:30;;;;;;;4.73;3.97;;;22.30;99.90;;;;;;5110299;28;20475;-84
2021/06/22 00:34:56;;;;;;;4.33;4.03;;;22.40;99.90;;;;;;5103271;28;20428;-84
2021/06/22 00:37:22;;;;;;;4.43;4.10;;;22.40;99.90;;;;;;5101814;28;20155;-84
2021/06/22 00:39:48;;;;;;;7.53;4.07;;;22.40;99.90;;;;;;5105200;28;20189;-84
2021/06/22 00:42:14;;;;;;;4.10;3.80;;;22.40;99.90;;;;;;5107575;28;20222;-84
2021/06/22 00:44:49;;;;;;;4.07;3.77;;;22.40;99.90;;;;;;5107939;28;20201;-83
2021/06/22 00:47:16;;;;;;;4.73;4.00;;;22.40;99.90;;;;;;5103821;28;20253;-84
2021/06/22 00:49:43;;;;;;;4.90;4.50;;;22.50;99.90;;;;;;5100389;28;20399;-83
2021/06/22 00:52:09;;;;;;;4.97;4.50;;;22.40;99.90;;;;;;5100890;28;20385;-84
2021/06/22 00:54:36;;;;;;;4.77;4.27;;;22.40;99.90;;;;;;5100565;28;20385;-83
2021/06/22 00:57:06;;;;;;;4.77;4.37;;;22.40;99.90;;;;;;5100083;28;20468;-84
2021/06/22 00:59:32;;;;;;;4.20;3.80;;;22.30;99.90;;;;;;5099403;28;20392;-84
2021/06/22 01:01:59;;;;;;;5.17;3.80;;;22.30;99.90;;;;;;5064903;28;20454;-84
2021/06/22 01:04:27;;;;;;;4.73;4.37;;;22.30;99.90;;;;;;5099909;28;20389;-84
2021/06/22 01:06:55;;;;;;;4.53;4.13;;;22.30;99.90;;;;;;5099591;28;20956;-83
2021/06/22 01:09:21;;;;;;;5.83;5.00;;;22.30;99.90;;;;;;5099149;28;20413;-84
2021/06/22 01:11:47;;;;;;;4.97;4.47;;;22.20;99.90;;;;;;5100417;28;20745;-83
2021/06/22 01:14:13;;;;;;;5.10;4.73;;;22.20;99.90;;;;;;5099824;28;20151;-83
2021/06/22 01:16:39;;;;;;;8.27;4.43;;;22.10;99.90;;;;;;5098686;28;20436;-84
2021/06/22 01:19:09;;;;;;;4.60;4.20;;;22.10;99.90;;;;;;5097385;28;20182;-83
2021/06/22 01:21:36;;;;;;;4.97;4.33;;;22.10;99.90;;;;;;5098572;28;20158;-83
2021/06/22 01:24:12;;;;;;;6.53;5.63;;;22.00;99.90;;;;;;5099402;28;20460;-83
2021/06/22 01:26:45;;;;;;;4.23;3.93;;;22.00;99.90;;;;;;5100137;28;20440;-84
2021/06/22 01:29:11;;;;;;;5.43;5.03;;;22.00;99.90;;;;;;5099557;28;20483;-84
2021/06/22 01:31:37;;;;;;;5.37;4.97;;;21.80;99.90;;;;;;5099603;28;20847;-84
2021/06/22 01:34:05;;;;;;;4.93;4.40;;;21.70;99.90;;;;;;5100753;28;20159;-84
2021/06/22 01:36:33;;;;;;;4.77;4.37;;;21.50;99.90;;;;;;5100251;28;20808;-83
2021/06/22 01:38:59;;;;;;;7.30;5.20;;;21.40;99.90;;;;;;5103797;28;20400;-84
2021/06/22 01:41:25;;;;;;;5.77;4.57;;;21.60;99.90;;;;;;5104567;28;20806;-84
2021/06/22 01:43:51;;;;;;;5.73;5.23;;;21.70;99.90;;;;;;5102422;28;20165;-83
2021/06/22 01:46:18;;;;;;;6.80;6.20;;;21.70;99.90;;;;;;5104478;28;20793;-83
2021/06/22 01:48:44;;;;;;;5.30;4.80;;;21.50;99.90;;;;;;5103255;28;20256;-83
2021/06/22 01:51:10;;;;;;;5.50;5.00;;;21.40;99.90;;;;;;5086326;28;20392;-84
2021/06/22 01:53:36;;;;;;;5.30;4.90;;;21.60;99.90;;;;;;5103486;28;20384;-83
2021/06/22 01:56:03;;;;;;;6.10;5.40;;;21.70;99.90;;;;;;5103757;28;20415;-84
2021/06/22 01:58:29;;;;;;;5.90;5.40;;;21.70;99.90;;;;;;5103539;28;20163;-83
2021/06/22 02:00:57;;;;;;;6.47;5.97;;;21.80;99.90;;;;;;5104137;28;20388;-83
2021/06/22 02:03:26;;;;;;;7.20;5.63;;;21.60;99.90;;;;;;5103689;28;20397;-83
2021/06/22 02:05:52;;;;;;;6.53;6.03;;;21.60;99.90;;;;;;5105085;28;20535;-83
2021/06/22 02:08:19;;;;;;;6.80;6.17;;;21.60;99.90;;;;;;5105437;28;20888;-83
2021/06/22 02:10:46;;;;;;;5.90;5.50;;;21.60;99.90;;;;;;5105066;28;20445;-83
2021/06/22 02:13:15;;;;;;;6.97;5.93;;;21.50;99.90;;;;;;5103697;28;20396;-83
2021/06/22 02:15:42;;;;;;;12.60;6.80;;;21.40;99.90;;;;;;5106424;28;20810;-84
2021/06/22 02:18:08;;;;;;;7.20;5.30;;;21.40;99.90;;;;;;5104469;28;20428;-84
2021/06/22 02:20:37;;;;;;;6.77;6.20;;;21.40;99.90;;;;;;5104429;28;20408;-83
2021/06/22 02:23:03;;;;;;;6.97;6.37;;;21.20;99.90;;;;;;5105343;28;20393;-84
2021/06/22 02:25:29;;;;;;;8.03;7.23;;;21.30;99.90;;;;;;5105984;28;20433;-83
2021/06/22 02:28:08;;;;;;;6.43;5.93;;;21.20;99.90;;;;;;5106612;28;20447;-85
2021/06/22 02:30:35;;;;;;;6.50;5.90;;;21.10;99.90;;;;;;5108131;28;20184;-84
2021/06/22 02:33:01;;;;;;;7.00;6.33;;;21.10;99.90;;;;;;5108776;28;20392;-84
2021/06/22 02:35:27;;;;;;;7.27;6.60;;;21.10;99.90;;;;;;5106419;28;20416;-85
2021/06/22 02:37:53;;;;;;;7.10;6.50;;;21.10;99.90;;;;;;5109040;28;20393;-84
2021/06/22 02:40:20;;;;;;;7.63;7.03;;;21.00;99.90;;;;;;5106394;28;20408;-85
2021/06/22 02:42:47;;;;;;;7.83;6.47;;;21.00;99.90;;;;;;5108346;28;20239;-84
2021/06/22 02:45:14;;;;;;;7.60;6.90;;;20.90;99.90;;;;;;5107991;28;20440;-85
2021/06/22 02:47:41;;;;;;;7.87;7.10;;;20.90;99.90;;;;;;5121294;28;20449;-84
2021/06/22 02:50:07;;;;;;;6.73;6.13;;;20.90;99.90;;;;;;5119276;28;20482;-84
2021/06/22 02:52:33;;;;;;;8.80;6.87;;;20.80;99.90;;;;;;5120602;28;20413;-84
2021/06/22 02:54:59;;;;;;;7.20;6.47;;;20.80;99.90;;;;;;5120614;28;20396;-84
2021/06/22 02:57:25;;;;;;;7.00;6.30;;;20.70;99.90;;;;;;5113881;28;20282;-84
2021/06/22 02:59:51;;;;;;;10.40;7.53;;;20.70;99.90;;;;;;5094010;28;20170;-84
2021/06/22 03:02:16;;;;;;;7.45;6.75;;;20.60;99.90;;;;;;5114931;28;20417;-84
2021/06/22 03:04:42;;;;;;;6.70;6.00;;;20.50;99.90;;;;;;5105070;28;20159;-84
2021/06/22 03:07:08;;;;;;;6.30;5.70;;;20.50;99.90;;;;;;5104363;28;20186;-84
2021/06/22 03:09:34;;;;;;;7.83;7.10;;;20.50;99.90;;;;;;5086040;28;20262;-84
2021/06/22 03:12:00;;;;;;;6.50;5.87;;;20.50;99.90;;;;;;5105156;28;20162;-84
2021/06/22 03:14:26;;;;;;;7.77;7.07;;;20.40;99.90;;;;;;5103487;28;20190;-84
2021/06/22 03:16:53;;;;;;;6.87;6.10;;;20.40;99.90;;;;;;5105089;28;20401;-84
2021/06/22 03:19:19;;;;;;;5.93;5.43;;;20.30;99.90;;;;;;5105432;28;20429;-84
2021/06/22 03:21:46;;;;;;;7.90;7.10;;;20.40;99.90;;;;;;5104293;28;20428;-84
2021/06/22 03:24:15;;;;;;;7.80;7.10;;;20.40;99.90;;;;;;5104496;28;20393;-84
2021/06/22 03:26:41;;;;;;;9.50;6.03;;;20.40;99.90;;;;;;5084871;28;20481;-84
2021/06/22 03:29:08;;;;;;;8.20;6.90;;;20.40;99.90;;;;;;5104145;28;20455;-84
2021/06/22 03:31:37;;;;;;;9.03;6.50;;;20.40;99.90;;;;;;5105258;28;20392;-84
2021/06/22 03:34:03;;;;;;;6.90;6.30;;;20.30;99.90;;;;;;5104908;28;20400;-84
2021/06/22 03:36:30;;;;;;;6.90;6.30;;;20.20;99.90;;;;;;5104242;28;20929;-83
2021/06/22 03:38:56;;;;;;;6.90;6.20;;;20.30;99.90;;;;;;5101716;28;20393;-83
2021/06/22 03:41:22;;;;;;;10.10;6.07;;;20.20;99.90;;;;;;5101677;28;20452;-84
2021/06/22 03:43:47;;;;;;;6.80;6.10;;;20.10;99.90;;;;;;5101024;28;20900;-84
2021/06/22 03:46:17;;;;;;;6.50;5.87;;;20.10;99.90;;;;;;5102132;28;20190;-83
2021/06/22 03:48:45;;;;;;;8.17;6.10;;;20.20;99.90;;;;;;5102763;28;20159;-84
2021/06/22 03:51:10;;;;;;;7.17;6.47;;;20.10;99.90;;;;;;5102307;28;20393;-84
2021/06/22 03:53:38;;;;;;;6.57;5.77;;;20.10;99.90;;;;;;5101797;28;20427;-83
2021/06/22 03:56:06;;;;;;;6.73;6.10;;;20.10;99.90;;;;;;5103910;28;20181;-84
2021/06/22 03:58:33;;;;;;;6.27;5.67;;;20.10;99.90;;;;;;5103851;28;20423;-82
2021/06/22 04:00:59;;;;;;;6.83;6.23;;;20.10;99.90;;;;;;5116032;28;20430;-82
2021/06/22 04:03:25;;;;;;;6.47;5.83;;;20.10;99.90;;;;;;5112192;28;20425;-84
2021/06/22 04:05:50;;;;;;;5.40;4.90;;;20.10;99.90;;;;;;5100487;28;20441;-84
2021/06/22 04:08:16;;;;;;;7.33;6.27;;;20.00;99.90;;;;;;5099826;28;20432;-84
2021/06/22 04:10:42;;;;;;;6.10;5.53;;;20.00;99.90;;;;;;5100478;28;20655;-84
2021/06/22 04:13:09;;;;;;;7.23;6.53;;;20.00;99.90;;;;;;5101274;28;20158;-84
2021/06/22 04:15:34;;;;;;;6.30;5.70;;;20.10;99.90;;;;;;5102162;28;20162;-84
2021/06/22 04:18:03;;;;;;;6.17;5.67;;;20.10;99.90;;;;;;5101758;28;20768;-84
2021/06/22 04:20:29;;;;;;;7.30;5.93;;;20.10;99.90;;;;;;5100012;28;20222;-84
2021/06/22 04:22:55;;;;;;;5.43;4.97;;;20.10;99.90;;;;;;5100604;28;20397;-84
2021/06/22 04:25:21;;;;;;;6.03;5.53;;;20.20;99.90;;;;;;5100616;28;20519;-83
2021/06/22 04:27:47;;;;;;;6.00;5.40;;;20.20;99.90;;;;;;5102028;28;20626;-83
2021/06/22 04:30:13;;;;;;;6.30;5.70;;;20.20;99.90;;;;;;5098667;28;20548;-83
2021/06/22 04:32:39;;;;;;;5.97;5.47;;;20.20;99.90;;;;;;5100144;28;20389;-83
2021/06/22 04:35:05;;;;;;;7.27;6.10;;;20.10;99.90;;;;;;5097255;28;20417;-84
2021/06/22 04:37:31;;;;;;;5.50;4.90;;;20.10;99.90;;;;;;5099418;28;20224;-84
2021/06/22 04:39:57;;;;;;;6.37;5.30;;;20.00;99.90;;;;;;5097657;28;20389;-83
2021/06/22 04:42:23;;;;;;;5.00;4.60;;;20.00;99.90;;;;;;5098391;28;20210;-83
2021/06/22 04:44:49;;;;;;;6.60;5.40;;;20.00;99.90;;;;;;5099163;28;20963;-84
2021/06/22 04:47:15;;;;;;;6.10;5.60;;;20.10;99.90;;;;;;5098018;28;20159;-84
2021/06/22 04:49:44;;;;;;;6.33;5.53;;;20.10;99.90;;;;;;5099067;28;20159;-84
2021/06/22 04:52:11;;;;;;;6.70;6.00;;;20.20;99.90;;;;;;5099250;28;20476;-84
2021/06/22 04:54:38;;;;;;;6.33;5.67;;;20.20;99.90;;;;;;5104187;28;20428;-83
2021/06/22 04:57:05;;;;;;;5.17;4.67;;;20.20;99.90;;;;;;5102170;28;20401;-83
2021/06/22 04:59:34;;;;;;;7.03;5.20;;;20.20;99.90;;;;;;5098873;28;20491;-83
2021/06/22 05:02:00;;;;;;;6.07;5.40;;;20.20;99.90;;;;;;5100434;28;20400;-83
2021/06/22 05:04:26;;;;;;;7.57;5.40;;;20.20;99.90;;;;;;5101294;28;20722;-83
2021/06/22 05:06:52;;;;;;;6.37;5.77;;;20.30;99.90;;;;;;5102568;28;20457;-82
2021/06/22 05:09:17;;;;;;;7.40;6.77;;;20.30;99.90;;;;;;5111318;28;20186;-82
2021/06/22 05:11:43;;;;;;;6.90;5.30;;;20.30;99.90;;;;;;5106644;28;20159;-83
2021/06/22 05:14:09;;;;;;;8.33;6.37;;;20.40;99.90;;;;;;5107328;28;20281;-83
2021/06/22 05:16:35;;;;;;;5.80;5.03;;;20.30;99.90;;;;;;5105352;28;20237;-83
2021/06/22 05:19:00;;;;;;;5.53;5.03;;;20.50;99.90;;;;;;5108489;28;20158;-83
2021/06/22 05:21:26;;;;;;;6.43;5.87;;;20.50;99.90;;;;;;5107937;28;20166;-83
2021/06/22 05:23:52;;;;;;;8.40;5.73;;;20.70;99.90;;;;;;5106429;28;20163;-84
2021/06/22 05:26:18;;;;;;;5.27;4.87;;;20.70;99.90;;;;;;5105334;28;20284;-84
2021/06/22 05:28:44;;;;;;;6.47;5.70;;;20.70;99.90;;;;;;5103765;28;20183;-83
2021/06/22 05:31:09;;;;;;;6.67;5.90;;;20.80;99.90;;;;;;5106419;28;20166;-84
2021/06/22 05:33:35;;;;;;;5.13;4.63;;;20.90;99.90;;;;;;5105546;28;20174;-84
2021/06/22 05:36:01;;;;;;;5.67;5.17;;;20.90;99.90;;;;;;5108257;28;20175;-82
2021/06/22 05:38:27;;;;;;;5.97;5.37;;;20.70;99.90;;;;;;5107859;28;20174;-83
2021/06/22 05:40:53;;;;;;;8.20;5.30;;;20.90;99.90;;;;;;5105871;28;20471;-83
2021/06/22 05:43:19;;;;;;;5.30;4.73;;;20.90;99.90;;;;;;5102169;28;20198;-84
2021/06/22 05:45:45;;;;;;;6.40;5.00;;;20.90;99.90;;;;;;5103917;28;20452;-83
2021/06/22 05:48:10;;;;;;;5.13;4.63;;;20.80;99.90;;;;;;5106195;28;20154;-84
2021/06/22 05:50:36;;;;;;;6.23;4.57;;;20.90;99.90;;;;;;5103451;28;20169;-83
2021/06/22 05:53:02;;;;;;;6.47;5.87;;;20.90;99.90;;;;;;5103904;28;20155;-83
2021/06/22 05:55:28;;;;;;;6.17;5.53;;;21.00;99.90;;;;;;5104368;28;20163;-84
2021/06/22 05:57:55;;;;;;;5.47;4.60;;;21.10;99.90;;;;;;5103961;28;20900;-84
2021/06/22 06:00:24;;;;;;;5.93;5.40;;;21.10;99.90;;;;;;5107885;28;20183;-83
2021/06/22 06:02:51;;;;;;;6.97;6.23;;;21.10;99.90;;;;;;5117440;28;20489;-83
2021/06/22 06:05:19;;;;;;;7.97;5.07;;;20.80;99.90;;;;;;5117578;28;20472;-84
2021/06/22 06:07:45;;;;;;;6.53;5.33;;;21.00;99.90;;;;;;5116771;28;20448;-78
2021/06/22 06:10:12;;;;;;;5.40;4.90;;;21.10;99.90;;;;;;5116798;28;20444;-83
2021/06/22 06:12:39;;;;;;;6.23;5.27;;;20.90;99.90;;;;;;5116377;28;20417;-83
2021/06/22 06:15:06;;;;;;;5.73;5.07;;;21.20;99.90;;;;;;5103901;28;20738;-81
2021/06/22 06:17:33;;;;;;;5.67;5.17;;;21.30;99.90;;;;;;5104803;28;20421;-83
2021/06/22 06:19:59;;;;;;;4.80;4.40;;;21.30;99.90;;;;;;5095930;28;20433;-82
2021/06/22 06:22:25;;;;;;;5.00;4.60;;;21.30;99.90;;;;;;5104595;28;20452;-83
2021/06/22 06:24:55;;;;;;;10.00;4.77;;;21.40;99.90;;;;;;5109751;28;20603;-83
2021/06/22 06:27:25;;;;;;;5.03;4.63;;;21.40;99.90;;;;;;5106600;28;20496;-83
2021/06/22 06:29:56;;;;;;;5.70;4.13;;;21.30;99.90;;;;;;5102739;28;20798;-83
2021/06/22 06:32:22;;;;;;;5.13;4.73;;;21.20;99.90;;;;;;5094222;28;20417;-83
2021/06/22 06:34:48;;;;;;;3.83;3.47;;;21.00;99.90;;;;;;5117297;28;20401;-84
2021/06/22 06:37:13;;;;;;;4.80;4.30;;;21.20;99.90;;;;;;5111938;28;20449;-83
2021/06/22 06:39:39;;;;;;;18.37;5.23;;;21.30;99.90;;;;;;5104861;28;20228;-83
2021/06/22 06:42:06;;;;;;;4.00;3.50;;;21.00;99.90;;;;;;5103886;28;20278;-82
2021/06/22 06:44:31;;;;;;;4.60;4.20;;;20.30;99.90;;;;;;5106765;28;20215;-83
2021/06/22 06:46:57;;;;;;;5.37;3.60;;;20.70;99.90;;;;;;5086489;28;20476;-83
2021/06/22 06:49:23;;;;;;;3.83;3.40;;;20.90;99.90;;;;;;5101386;28;20292;-83
2021/06/22 06:51:49;;;;;;;4.40;4.00;;;20.90;99.90;;;;;;5098681;28;20577;-83
2021/06/22 06:54:15;;;;;;;4.00;3.70;;;20.80;99.90;;;;;;5104242;28;20185;-83
2021/06/22 06:56:41;;;;;;;4.97;4.47;;;20.70;99.90;;;;;;5106102;28;20170;-83
2021/06/22 06:59:10;;;;;;;4.60;4.20;;;20.80;99.90;;;;;;5091024;28;20176;-83
2021/06/22 07:01:35;;;;;;;4.03;3.67;;;21.10;99.90;;;;;;5073754;28;20425;-83
2021/06/22 07:04:01;;;;;;;5.27;3.80;;;21.20;99.90;;;;;;5083353;28;20560;-83
2021/06/22 07:06:27;;;;;;;4.03;3.73;;;21.40;99.90;;;;;;5083199;28;20213;-83
2021/06/22 07:08:53;;;;;;;3.87;3.57;;;21.60;99.90;;;;;;5066603;28;20283;-83
2021/06/22 07:11:21;;;;;;;5.33;3.87;;;21.80;99.90;;;;;;5084963;28;20174;-84
2021/06/22 07:13:48;;;;;;;3.83;3.53;;;21.40;99.90;;;;;;5084603;28;20206;-83
2021/06/22 07:16:15;;;;;;;6.20;4.80;;;21.40;99.90;;;;;;5051420;28;20409;-84
2021/06/22 07:18:41;;;;;;;4.30;3.90;;;21.50;99.90;;;;;;5066965;28;20507;-84
2021/06/22 07:21:07;;;;;;;4.47;4.00;;;21.80;99.90;;;;;;5067529;28;20441;-84
2021/06/22 07:23:36;;;;;;;5.17;3.90;;;21.90;99.90;;;;;;5086257;28;20401;-83
2021/06/22 07:26:03;;;;;;;5.20;3.47;;;22.00;99.90;;;;;;5085449;28;20450;-84
2021/06/22 07:28:29;;;;;;;3.97;3.67;;;22.00;99.90;;;;;;5053985;28;20171;-84
2021/06/22 07:30:55;;;;;;;6.60;6.00;;;21.80;99.90;;;;;;5070646;28;20417;-84
2021/06/22 07:33:21;;;;;;;4.45;3.45;;;21.40;99.90;;;;;;5102353;28;20515;-84
2021/06/22 07:35:47;;;;;;;4.90;4.47;;;21.90;99.90;;;;;;5118001;28;20171;-83
2021/06/22 07:38:16;;;;;;;8.73;3.40;;;22.10;99.90;;;;;;5117961;28;20190;-83
2021/06/22 07:40:41;;;;;;;4.93;3.60;;;22.10;99.90;;;;;;5117523;28;20468;-80
2021/06/22 07:43:08;;;;;;;4.60;4.10;;;22.10;99.90;;;;;;5117836;28;20416;-80
2021/06/22 07:45:34;;;;;;;6.80;4.53;;;22.10;99.90;;;;;;5089019;28;20305;-83
2021/06/22 07:48:00;;;;;;;7.53;4.83;;;21.80;99.90;;;;;;5085894;28;20425;-84
2021/06/22 07:50:26;;;;;;;5.67;5.17;;;22.10;99.90;;;;;;5086993;28;20507;-83
2021/06/22 07:52:52;;;;;;;4.90;4.50;;;22.20;99.90;;;;;;5069817;28;20588;-83
2021/06/22 07:55:17;;;;;;;6.63;5.40;;;21.40;99.90;;;;;;5086022;28;20452;-83
2021/06/22 07:57:47;;;;;;;6.00;5.60;;;21.30;99.90;;;;;;5070466;28;20174;-83
2021/06/22 08:00:20;;;;;;;5.27;4.77;;;21.40;99.90;;;;;;5073029;28;20179;-83
2021/06/22 08:02:46;;;;;;;4.97;4.47;;;21.80;99.90;;;;;;5067399;28;20437;-84
2021/06/22 08:05:12;;;;;;;5.63;5.23;;;22.00;99.90;;;;;;5025728;28;20574;-81
2021/06/22 08:07:38;;;;;;;5.00;4.60;;;22.10;99.90;;;;;;5010001;28;20209;-84
2021/06/22 08:10:05;;;;;;;5.83;5.30;;;22.20;99.90;;;;;;5010535;28;20500;-83
2021/06/22 08:12:31;;;;;;;6.43;4.97;;;22.00;99.90;;;;;;5003034;28;20410;-82
2021/06/22 08:14:57;;;;;;;4.73;4.33;;;21.30;99.90;;;;;;5019197;28;20423;-84
2021/06/22 08:17:23;;;;;;;6.20;4.07;;;21.60;99.90;;;;;;5059881;28;20180;-83
2021/06/22 08:19:49;;;;;;;4.60;3.47;;;21.30;99.90;;;;;;5065249;28;20234;-84
2021/06/22 08:22:15;;;;;;;4.93;4.20;;;20.60;99.90;;;;;;5065253;28;20938;-82
2021/06/22 08:24:40;;;;;;;5.80;5.20;;;20.40;99.90;;;;;;5064457;28;20248;-83
2021/06/22 08:27:06;;;;;;;5.20;4.80;;;20.60;99.90;;;;;;5063221;28;20203;-82
2021/06/22 08:29:32;;;;;;;10.23;5.40;;;20.90;99.90;;;;;;5064314;28;20278;-81
2021/06/22 08:31:58;;;;;;;4.83;4.40;;;20.90;99.90;;;;;;5062846;28;20734;-84
2021/06/22 08:34:24;;;;;;;4.10;3.80;;;21.40;99.90;;;;;;5064111;28;20179;-83
2021/06/22 08:36:50;;;;;;;3.73;3.43;;;21.80;99.90;;;;;;5094657;28;20190;-84
2021/06/22 08:39:21;;;;;;;4.00;3.70;;;21.80;99.90;;;;;;5106424;28;20261;-86
2021/06/22 08:41:49;;;;;;;5.80;4.30;;;21.30;99.90;;;;;;5073411;28;20233;-83
2021/06/22 08:44:18;;;;;;;4.73;4.20;;;21.00;99.90;;;;;;5106323;28;20428;-82
2021/06/22 08:46:45;;;;;;;7.60;3.53;;;20.90;99.90;;;;;;5087245;28;20453;-84
2021/06/22 08:49:12;;;;;;;5.27;3.97;;;21.00;99.90;;;;;;5105942;28;20773;-83
2021/06/22 08:51:40;;;;;;;3.80;3.50;;;21.40;99.90;;;;;;5103489;28;20434;-85
2021/06/22 08:54:07;;;;;;;5.77;3.93;;;21.90;99.90;;;;;;5092853;28;20476;-84
2021/06/22 08:56:36;;;;;;;4.27;3.40;;;22.10;99.90;;;;;;5090462;28;20428;-84
2021/06/22 08:59:06;;;;;;;4.03;3.73;;;21.20;99.90;;;;;;5043756;28;20514;-84
2021/06/22 09:01:38;;;;;;;4.43;4.13;;;21.60;99.90;;;;;;5044380;28;20411;-86
2021/06/22 09:04:06;;;;;;;8.07;3.67;;;21.80;99.90;;;;;;5027490;28;20407;-84
2021/06/22 09:06:47;;;;;;;4.63;4.10;;;22.10;99.90;;;;;;5023020;28;20452;-85
2021/06/22 09:09:12;;;;;;;4.00;3.50;;;22.00;99.90;;;;;;5039426;28;20448;-83
2021/06/22 09:11:39;;;;;;;4.70;3.40;;;21.60;99.90;;;;;;5030598;28;20589;-85
2021/06/22 09:14:07;;;;;;;4.00;3.70;;;22.00;99.90;;;;;;5027815;28;20181;-84
2021/06/22 09:16:33;;;;;;;4.30;3.97;;;22.00;99.90;;;;;;5028124;28;20443;-84
2021/06/22 09:19:04;;;;;;;4.43;4.03;;;21.70;99.90;;;;;;5034875;28;20426;-84
2021/06/22 09:21:42;;;;;;;4.00;3.70;;;21.50;99.90;;;;;;5045302;28;20529;-80
2021/06/22 09:24:18;;;;;;;5.03;3.67;;;21.80;99.90;;;;;;5028929;28;20441;-83
2021/06/22 09:26:47;;;;;;;6.50;4.57;;;21.60;99.90;;;;;;5045467;28;20474;-83
2021/06/22 09:29:21;;;;;;;4.00;3.70;;;22.10;99.90;;;;;;5077863;28;20444;-84
2021/06/22 09:31:51;;;;;;;5.00;3.80;;;22.70;99.90;;;;;;5096082;28;20496;-83
2021/06/22 09:34:19;;;;;;;4.77;4.30;;;22.60;99.90;;;;;;5094631;28;20520;-85
2021/06/22 09:36:51;;;;;;;3.33;3.13;;;22.50;99.90;;;;;;5057064;28;20426;-84
2021/06/22 09:39:18;;;;;;;4.27;3.73;;;22.50;99.90;;;;;;5108193;28;20420;-82
2021/06/22 09:41:44;;;;;;;4.10;3.80;;;22.10;99.90;;;;;;5106082;28;20559;-83
2021/06/22 09:44:12;;;;;;;3.43;3.23;;;22.20;99.90;;;;;;5089518;28;20428;-84
2021/06/22 09:46:44;;;;;;;4.53;4.13;;;22.90;99.90;;;;;;5089300;28;20466;-82
2021/06/22 09:49:25;;;;;;;3.90;3.60;;;23.40;99.90;;;;;;5105970;28;20508;-84
2021/06/22 09:51:57;;;;;;;9.23;3.07;;;23.10;99.90;;;;;;5106406;28;20916;-83
2021/06/22 09:54:26;;;;;;;4.27;3.77;;;23.00;99.90;;;;;;5106755;28;20473;-82
2021/06/22 09:56:57;;;;;;;3.30;3.10;;;23.30;99.90;;;;;;5105997;28;20441;-82
2021/06/22 09:59:25;;;;;;;5.53;3.30;;;23.00;99.90;;;;;;5107625;28;20465;-83
2021/06/22 10:01:52;;;;;;;11.63;4.17;;;23.00;99.90;;;;;;5109837;28;20424;-83
2021/06/22 10:04:24;;;;;;;4.43;3.70;;;23.40;99.90;;;;;;5105154;28;20451;-83
2021/06/22 10:06:53;;;;;;;3.90;3.60;;;23.50;99.90;;;;;;5102627;28;20979;-83
2021/06/22 10:09:22;;;;;;;4.93;4.20;;;23.60;99.90;;;;;;5109234;28;20444;-84
2021/06/22 10:11:56;;;;;;;4.20;3.90;;;23.20;99.90;;;;;;5111188;28;20416;-82
2021/06/22 10:14:26;;;;;;;3.63;3.33;;;23.20;99.90;;;;;;5110158;28;20469;-83
2021/06/22 10:16:52;;;;;;;4.40;4.10;;;23.10;99.90;;;;;;5109529;28;20412;-83
2021/06/22 10:19:21;;;;;;;3.80;3.50;;;23.00;99.90;;;;;;5110600;28;20424;-82
2021/06/22 10:21:47;;;;;;;4.20;3.47;;;23.40;99.90;;;;;;5109195;28;20419;-84
2021/06/22 10:24:14;;;;;;;3.40;3.20;;;24.00;99.90;;;;;;5074581;28;20413;-83
2021/06/22 10:26:40;;;;;;;3.40;3.10;;;24.30;99.90;;;;;;5108677;28;20449;-84
2021/06/22 10:29:07;;;;;;;6.40;4.43;;;24.40;99.90;;;;;;5109416;28;20453;-83
2021/06/22 10:31:35;;;;;;;3.57;3.27;;;24.60;99.90;;;;;;5108512;28;20397;-85
2021/06/22 10:34:01;;;;;;;4.50;4.20;;;24.50;99.90;;;;;;5087760;28;20861;-84
2021/06/22 10:36:34;;;;;;;4.27;3.97;;;23.70;99.90;;;;;;5091700;28;20515;-84
2021/06/22 10:39:08;;;;;;;4.20;3.90;;;22.60;99.90;;;;;;5103166;28;20805;-83
2021/06/22 10:41:40;;;;;;;3.70;3.40;;;23.40;99.90;;;;;;5101065;28;20493;-83
2021/06/22 10:44:23;;;;;;;4.03;3.70;;;23.30;99.90;;;;;;5097821;28;20433;-84
2021/06/22 10:47:23;;;;;;;4.53;3.60;;;23.40;99.90;;;;;;5100541;28;20470;-85
2021/06/22 10:50:03;;;;;;;3.70;3.40;;;23.60;99.90;;;;;;5103225;28;20393;-83
2021/06/22 10:52:50;;;;;;;4.37;3.90;;;23.80;99.90;;;;;;5058820;28;20502;-83
2021/06/22 10:55:22;;;;;;;4.40;3.70;;;24.70;99.90;;;;;;5067528;28;20422;-82
2021/06/22 10:58:11;;;;;;;4.03;3.63;;;24.90;99.90;;;;;;5048741;28;20414;-83
2021/06/22 11:01:13;;;;;;;3.60;3.30;;;24.90;99.90;;;;;;5032639;28;20520;-82
2021/06/22 11:03:40;;;;;;;3.87;3.57;;;24.90;99.90;;;;;;5070403;28;20438;-83
2021/06/22 11:06:22;;;;;;;3.77;3.40;;;25.20;99.90;;;;;;5099896;28;20608;-81
2021/06/22 11:08:48;;;;;;;4.63;4.23;;;25.00;99.90;;;;;;5026412;28;20431;-83
2021/06/22 11:11:16;;;;;;;4.00;3.70;;;24.50;99.90;;;;;;4979245;28;21003;-83
2021/06/22 11:13:51;;;;;;;3.63;3.40;;;23.40;99.90;;;;;;4975093;28;20490;-83
2021/06/22 11:16:32;;;;;;;4.77;4.37;;;24.30;99.90;;;;;;4992636;28;20452;-83
2021/06/22 11:19:04;;;;;;;3.90;3.60;;;23.10;99.90;;;;;;4978654;28;20463;-84
2021/06/22 11:21:48;;;;;;;6.90;3.80;;;23.90;99.90;;;;;;4996493;28;20429;-84
2021/06/22 11:24:16;;;;;;;3.20;3.00;;;24.00;99.90;;;;;;5020229;28;20431;-83
2021/06/22 11:27:00;;;;;;;3.83;3.53;;;24.70;99.90;;;;;;5033823;28;20459;-82
2021/06/22 11:29:45;;;;;;;4.93;4.10;;;25.10;99.90;;;;;;5044179;28;20423;-84
2021/06/22 11:32:32;;;;;;;4.53;3.60;;;25.60;99.90;;;;;;5033274;28;20493;-84
2021/06/22 11:34:58;;;;;;;4.60;4.20;;;25.50;99.90;;;;;;4994099;28;20426;-84
2021/06/22 11:37:32;;;;;;;4.40;4.10;;;24.50;99.90;;;;;;4995671;28;20433;-82
2021/06/22 11:40:05;;;;;;;5.80;4.00;;;23.70;99.90;;;;;;5019775;28;20585;-83
2021/06/22 11:42:38;;;;;;;4.03;3.73;;;23.60;99.90;;;;;;5003694;28;20449;-85
2021/06/22 11:45:19;;;;;;;3.63;3.33;;;24.20;99.90;;;;;;5031190;28;20425;-85
2021/06/22 11:47:51;;;;;;;4.30;3.57;;;24.90;99.90;;;;;;5022092;28;20435;-85
2021/06/22 11:50:21;;;;;;;4.37;3.50;;;25.00;99.90;;;;;;5038922;28;20821;-85
2021/06/22 11:52:50;;;;;;;4.37;4.07;;;24.50;99.90;;;;;;5021901;28;20469;-85
2021/06/22 11:55:18;;;;;;;4.70;4.07;;;24.00;99.90;;;;;;5038856;28;20446;-85
2021/06/22 11:57:49;;;;;;;5.60;4.60;;;23.60;99.90;;;;;;5038121;28;20438;-85
2021/06/22 12:00:18;;;;;;;4.53;4.20;;;23.30;99.90;;;;;;5038557;28;20954;-84
2021/06/22 12:02:53;;;;;;;3.80;3.50;;;23.80;99.90;;;;;;5031682;28;20428;-83
2021/06/22 12:05:22;;;;;;;3.20;3.00;;;23.60;99.90;;;;;;5054818;28;20427;-84
2021/06/22 12:07:54;;;;;;;3.77;3.50;;;24.90;99.90;;;;;;5098620;28;20500;-85
2021/06/22 12:10:25;;;;;;;3.90;3.50;;;25.00;99.90;;;;;;5079902;28;20428;-85
2021/06/22 12:12:53;;;;;;;4.07;3.77;;;25.30;99.90;;;;;;5049134;28;20920;-85
2021/06/22 12:15:31;;;;;;;3.03;2.83;;;24.60;99.90;;;;;;5056899;28;20434;-86
2021/06/22 12:17:57;;;;;;;4.40;3.30;;;26.00;99.90;;;;;;5060597;28;20459;-85
2021/06/22 12:20:27;;;;;;;4.47;4.03;;;26.40;99.90;;;;;;5043740;28;20896;-83
2021/06/22 12:23:11;;;;;;;6.10;4.50;;;27.00;99.90;;;;;;5078284;28;20902;-83
2021/06/22 12:25:40;;;;;;;5.40;4.50;;;26.80;99.90;;;;;;5077801;28;20547;-85
2021/06/22 12:28:07;;;;;;;3.37;3.17;;;27.40;99.90;;;;;;5045879;28;20397;-85
2021/06/22 12:30:43;;;;;;;4.50;4.10;;;27.00;99.90;;;;;;5062727;28;20393;-85
2021/06/22 12:33:12;;;;;;;4.37;4.07;;;26.20;99.90;;;;;;5079292;28;20403;-85
2021/06/22 12:35:39;;;;;;;4.60;4.20;;;26.10;99.90;;;;;;5062087;28;20496;-85
2021/06/22 12:38:18;;;;;;;3.60;3.30;;;26.50;99.90;;;;;;5079658;28;20434;-85
2021/06/22 12:40:54;;;;;;;3.87;3.00;;;26.70;99.90;;;;;;5069030;28;20471;-85
2021/06/22 12:43:42;;;;;;;4.73;4.43;;;27.20;99.90;;;;;;5061691;28;20499;-85
2021/06/22 12:46:08;;;;;;;4.07;3.73;;;25.70;99.90;;;;;;5088195;28;20533;-84
2021/06/22 12:48:35;;;;;;;3.73;3.43;;;25.50;99.90;;;;;;5100725;28;20399;-85
2021/06/22 12:51:01;;;;;;;4.20;3.90;;;26.10;99.90;;;;;;5100617;28;20416;-85